Ana Sayfa
METAR-TAF:

METAR-TAF

Havaalanları :

Buffalo Narrows, Manitoba, Kanada

Enlem: 55-50N, Boylam: 108-27W, yükseklik: 434 m

Güncel hava durumu gözlemi

Rapor saat 20:00 UTC de 55 dakika önce yapıldı.
Rüzgar kuzeybatıdan 7 kt
Sıcaklık -1°C
Nem 59%
Basınç 1009 hPa
Görüş mesafesi: 14.5 km
Açık gökyüzü

METAR: CYVT 232000Z AUTO 31007KT 9SM CLR M01/M08 A2980 RMK SLP117

Saat: 14:55 (20:55 UTC)

Tahmin

Rapor saat 20:38 UTC de 17 dakika önce yapıldı.
Ayın 23'si saat 21 UTC'den ayın 24'si saat 04 UTC'ye kadar geçerli Tahmin
Rüzgar kuzeybatıdan 8 kt
Görüş mesafesi: 10 km
Açık gökyüzü

TAF: CYVT 232038Z 2321/2404 31008KT P6SM SKC RMK FCST BASED ON AUTO OBS. NXT FCST WILL BE ISSUED AT 241345Z

4.000'den fazla havaalanı için hava durumu gözlemleri ve tahminleri (METAR ve TAF raporları).

Kullanılabilir istasyonlar harita üzerinde sarı ve kırmızı noktalarla gösterilir.

İstasyonun adını görmek için fareyi noktanın üzerinde gezdirin.

Sonrasında hava gözlem ve tahminlerini görmek için tıklayın.

Haritayı değiştirmek için: yaklaştırmak için siyah artı işaretli yeşil düğmeye ve uzaklaştırmak için de eksi işaretli düğmeye hızla tıklayın; bitişik haritalar için yeşil okları kullanın.


METAR-TAF: